createdAt,value
2022-11-16T00:03:44.186Z,99711.19
2022-11-16T00:14:06.186Z,99702.41
2022-11-16T00:24:27.671Z,99692.94
2022-11-16T00:34:49.138Z,99679.91
2022-11-16T00:45:11.036Z,99683.72
2022-11-16T00:55:33.046Z,99666.25
2022-11-16T01:06:00.858Z,99666.94
2022-11-16T01:16:23.806Z,99661.53
2022-11-16T01:26:45.356Z,99645.81
2022-11-16T01:37:06.819Z,99637.94
2022-11-16T01:47:29.284Z,99623.63
2022-11-16T01:57:51.173Z,99599.63
2022-11-16T02:08:40.412Z,99584.25
2022-11-16T02:19:39.098Z,99572.09
2022-11-16T02:30:01.364Z,99571.38
2022-11-16T02:40:26.379Z,99577.16
2022-11-16T02:50:52.693Z,99566.19
2022-11-16T03:01:25.201Z,99560.66
2022-11-16T03:12:01.353Z,99555.19
2022-11-16T03:22:36.465Z,99567.06
2022-11-16T03:33:12.994Z,99562.59
2022-11-16T03:43:36.792Z,99548.69
2022-11-16T03:53:58.275Z,99545.19
2022-11-16T04:04:38.328Z,99542.59
2022-11-16T04:15:18.303Z,99532.16
2022-11-16T04:25:42.542Z,99522.78
2022-11-16T04:36:22.623Z,99514.22
2022-11-16T04:47:10.199Z,99515.78
2022-11-16T04:57:31.725Z,99504.19
2022-11-16T05:07:53.202Z,99494.78
2022-11-16T05:18:14.668Z,99497.19
2022-11-16T05:28:36.437Z,99485.59
2022-11-16T05:38:58.149Z,99482.53
2022-11-16T05:49:19.676Z,99494.13
2022-11-16T05:59:41.243Z,99495.31
2022-11-16T06:10:02.729Z,99506.28
2022-11-16T06:20:24.197Z,99513.00
2022-11-16T06:30:45.655Z,99519.84
2022-11-16T06:41:07.175Z,99530.00
2022-11-16T06:51:28.717Z,99530.97
2022-11-16T07:01:51.117Z,99538.97
2022-11-16T07:12:12.592Z,99549.59
2022-11-16T07:22:34.059Z,99558.59
2022-11-16T07:32:59.401Z,99577.72
2022-11-16T07:43:20.876Z,99580.66
2022-11-16T07:53:43.445Z,99583.34
2022-11-16T08:04:04.917Z,99608.59
2022-11-16T08:14:26.393Z,99625.13
2022-11-16T08:24:47.903Z,99631.63
2022-11-16T08:35:09.468Z,99641.19
2022-11-16T08:45:31.677Z,99639.53
2022-11-16T08:55:53.166Z,99665.72
2022-11-16T09:06:16.039Z,99664.44
2022-11-16T09:16:37.534Z,99661.97
2022-11-16T09:27:01.320Z,99663.63
2022-11-16T09:37:22.791Z,99668.69
2022-11-16T09:47:57.399Z,99678.28
2022-11-16T09:58:26.903Z,99678.50
2022-11-16T10:08:51.500Z,99676.63
2022-11-16T10:19:37.476Z,99680.38
2022-11-16T10:30:09.899Z,99675.31
2022-11-16T10:40:39.041Z,99678.72
2022-11-16T10:51:01.592Z,99684.03
2022-11-16T11:01:37.253Z,99691.97
2022-11-16T11:12:20.345Z,99690.88
2022-11-16T11:22:49.548Z,99693.78
2022-11-16T11:33:15.932Z,99695.19
2022-11-16T11:43:38.473Z,99682.84
2022-11-16T11:54:02.734Z,99685.44
2022-11-16T12:04:58.302Z,99686.16
2022-11-16T12:15:55.128Z,99687.88
2022-11-16T12:26:46.102Z,99681.19
2022-11-16T12:37:10.414Z,99675.78
2022-11-16T12:47:37.764Z,99665.94
2022-11-16T12:58:14.584Z,99675.50
2022-11-16T13:08:45.601Z,99676.88
2022-11-16T13:19:11.694Z,99680.41
2022-11-16T13:30:14.793Z,99680.41
2022-11-16T13:40:36.826Z,99663.03
2022-11-16T13:51:02.120Z,99670.91
2022-11-16T14:01:23.973Z,99661.22
2022-11-16T14:11:45.546Z,99680.31
2022-11-16T14:22:18.178Z,99676.78
2022-11-16T14:33:12.923Z,99677.09
2022-11-16T14:43:41.183Z,99681.59
2022-11-16T14:54:11.134Z,99692.41
2022-11-16T15:04:32.809Z,99698.03
2022-11-16T15:14:57.491Z,99689.72
2022-11-16T15:25:30.504Z,99699.63
2022-11-16T15:35:55.326Z,99680.00
2022-11-16T15:46:17.785Z,99690.78
2022-11-16T15:56:40.076Z,99675.47
2022-11-16T16:07:01.698Z,99682.53
2022-11-16T16:17:25.975Z,99686.97
2022-11-16T16:27:47.557Z,99684.59
2022-11-16T16:38:12.944Z,99685.72
2022-11-16T16:48:34.410Z,99683.16
2022-11-16T16:58:55.939Z,99669.91
2022-11-16T17:09:17.427Z,99666.78
2022-11-16T17:19:38.883Z,99687.72
2022-11-16T17:30:01.068Z,99668.44
2022-11-16T17:40:22.576Z,99670.31
2022-11-16T17:50:48.035Z,99676.66
2022-11-16T18:01:09.633Z,99673.03
2022-11-16T18:11:31.216Z,99664.41
2022-11-16T18:21:52.749Z,99651.69
2022-11-16T18:32:14.209Z,99653.75
2022-11-16T18:42:35.878Z,99643.59
2022-11-16T18:52:57.604Z,99652.09
2022-11-16T19:03:19.484Z,99634.28
2022-11-16T19:13:42.605Z,99632.75
2022-11-16T19:24:06.756Z,99626.84
2022-11-16T19:34:33.160Z,99616.47
2022-11-16T19:44:54.957Z,99611.50
2022-11-16T19:55:16.542Z,99620.19
2022-11-16T20:05:38.063Z,99611.69
2022-11-16T20:16:01.336Z,99610.78
2022-11-16T20:26:25.089Z,99596.78
2022-11-16T20:36:49.636Z,99588.72
2022-11-16T20:47:11.099Z,99588.72
2022-11-16T20:57:32.600Z,99590.56
2022-11-16T21:07:54.125Z,99591.31
2022-11-16T21:18:15.622Z,99586.66
2022-11-16T21:28:38.114Z,99558.69
2022-11-16T21:39:00.039Z,99551.34
2022-11-16T21:49:21.514Z,99548.13
2022-11-16T21:59:43.073Z,99528.03
2022-11-16T22:10:08.359Z,99523.25
2022-11-16T22:20:29.875Z,99532.59
2022-11-16T22:31:02.215Z,99520.81
2022-11-16T22:41:23.668Z,99506.53
2022-11-16T22:51:45.839Z,99471.56
2022-11-16T23:02:08.486Z,99454.81
2022-11-16T23:12:48.555Z,99455.00
2022-11-16T23:23:37.191Z,99439.91
2022-11-16T23:33:58.871Z,99432.47
2022-11-16T23:44:20.337Z,99413.97
2022-11-16T23:54:41.895Z,99388.22
